METAR Data
IDs: Format: Raw Decoded Include TAF

Data at: 1343 UTC 14 Dec 2019

METAR for:KOTM (Ottumwa Industrial, IA, US)
Text:KOTM 141331Z AUTO 33014G21KT 7SM OVC011 M03/M05 A2987 RMK AO2 T10281050
Temperature: -2.8°C ( 27°F)
Dewpoint: -5.0°C ( 23°F) [RH = 85%]
Pressure (altimeter):29.87 inches Hg (1011.6 mb)
Winds:from the NNW (330 degrees) at 16 MPH (14 knots; 7.2 m/s) gusting to 24 MPH (21 knots; 10.8 m/s)
Visibility: 7 sm ( 11 km)
Ceiling:1100 feet AGL
Clouds: overcast cloud deck at 1100 feet AGL
QC Flag:automated observation with no human augmentation